sensor_id;sensor_type;location;lat;lon;timestamp;P1;durP1;ratioP1;P2;durP2;ratioP2
64868;SDS011;51349;52.424;10.840;2023-09-30T00:04:49;4.28;;;2.75;;
64868;SDS011;51349;52.424;10.840;2023-09-30T00:09:50;10.40;;;2.90;;
64868;SDS011;51349;52.424;10.840;2023-09-30T00:14:51;5.97;;;3.20;;
64868;SDS011;51349;52.424;10.840;2023-09-30T00:19:52;5.93;;;2.88;;
64868;SDS011;51349;52.424;10.840;2023-09-30T00:24:53;9.23;;;2.90;;
64868;SDS011;51349;52.424;10.840;2023-09-30T00:29:54;8.85;;;2.83;;
64868;SDS011;51349;52.424;10.840;2023-09-30T00:34:54;8.85;;;3.72;;
64868;SDS011;51349;52.424;10.840;2023-09-30T00:39:55;4.95;;;2.58;;
64868;SDS011;51349;52.424;10.840;2023-09-30T00:44:56;10.07;;;2.83;;
64868;SDS011;51349;52.424;10.840;2023-09-30T00:49:57;8.18;;;2.85;;
64868;SDS011;51349;52.424;10.840;2023-09-30T00:54:57;4.30;;;3.00;;
64868;SDS011;51349;52.424;10.840;2023-09-30T00:59:59;8.07;;;3.30;;
64868;SDS011;51349;52.424;10.840;2023-09-30T01:05:01;7.43;;;3.08;;
64868;SDS011;51349;52.424;10.840;2023-09-30T01:10:02;5.60;;;2.67;;
64868;SDS011;51349;52.424;10.840;2023-09-30T01:15:03;5.72;;;2.90;;
64868;SDS011;51349;52.424;10.840;2023-09-30T01:20:06;8.48;;;3.00;;
64868;SDS011;51349;52.424;10.840;2023-09-30T01:25:08;6.32;;;3.60;;
64868;SDS011;51349;52.424;10.840;2023-09-30T01:30:10;7.45;;;3.03;;
64868;SDS011;51349;52.424;10.840;2023-09-30T01:35:11;7.20;;;3.25;;
64868;SDS011;51349;52.424;10.840;2023-09-30T01:40:12;6.07;;;3.15;;
64868;SDS011;51349;52.424;10.840;2023-09-30T01:45:12;8.13;;;3.25;;
64868;SDS011;51349;52.424;10.840;2023-09-30T01:50:13;8.32;;;3.10;;
64868;SDS011;51349;52.424;10.840;2023-09-30T01:55:15;9.65;;;3.17;;
64868;SDS011;51349;52.424;10.840;2023-09-30T02:00:15;8.27;;;3.35;;
64868;SDS011;51349;52.424;10.840;2023-09-30T02:05:17;8.60;;;3.08;;
64868;SDS011;51349;52.424;10.840;2023-09-30T02:10:18;8.68;;;3.20;;
64868;SDS011;51349;52.424;10.840;2023-09-30T02:15:19;8.75;;;3.40;;
64868;SDS011;51349;52.424;10.840;2023-09-30T02:20:20;8.63;;;3.20;;
64868;SDS011;51349;52.424;10.840;2023-09-30T02:25:25;7.63;;;2.95;;
64868;SDS011;51349;52.424;10.840;2023-09-30T02:30:26;5.95;;;3.15;;
64868;SDS011;51349;52.424;10.840;2023-09-30T02:35:27;7.10;;;2.95;;
64868;SDS011;51349;52.424;10.840;2023-09-30T02:40:28;9.13;;;3.30;;
64868;SDS011;51349;52.424;10.840;2023-09-30T02:45:29;7.80;;;3.40;;
64868;SDS011;51349;52.424;10.840;2023-09-30T02:50:30;6.18;;;3.08;;
64868;SDS011;51349;52.424;10.840;2023-09-30T02:55:30;4.82;;;3.30;;
64868;SDS011;51349;52.424;10.840;2023-09-30T03:00:31;7.75;;;3.17;;
64868;SDS011;51349;52.424;10.840;2023-09-30T03:05:35;8.57;;;3.28;;
64868;SDS011;51349;52.424;10.840;2023-09-30T03:10:35;6.53;;;3.00;;
64868;SDS011;51349;52.424;10.840;2023-09-30T03:15:40;8.75;;;2.95;;
64868;SDS011;51349;52.424;10.840;2023-09-30T03:20:41;9.02;;;3.30;;
64868;SDS011;51349;52.424;10.840;2023-09-30T03:25:43;10.60;;;3.42;;
64868;SDS011;51349;52.424;10.840;2023-09-30T03:30:43;10.68;;;3.50;;
64868;SDS011;51349;52.424;10.840;2023-09-30T03:35:45;7.38;;;2.90;;
64868;SDS011;51349;52.424;10.840;2023-09-30T03:40:46;8.10;;;3.33;;
64868;SDS011;51349;52.424;10.840;2023-09-30T03:45:47;6.10;;;3.33;;
64868;SDS011;51349;52.424;10.840;2023-09-30T03:50:48;5.28;;;2.60;;
64868;SDS011;51349;52.424;10.840;2023-09-30T03:55:49;6.60;;;3.10;;
64868;SDS011;51349;52.424;10.840;2023-09-30T04:00:49;7.63;;;3.20;;
64868;SDS011;51349;52.424;10.840;2023-09-30T04:05:51;10.90;;;2.72;;
64868;SDS011;51349;52.424;10.840;2023-09-30T04:10:52;7.32;;;3.10;;
64868;SDS011;51349;52.424;10.840;2023-09-30T04:15:53;10.20;;;3.30;;
64868;SDS011;51349;52.424;10.840;2023-09-30T04:20:54;6.90;;;2.63;;
64868;SDS011;51349;52.424;10.840;2023-09-30T04:25:55;8.52;;;2.85;;
64868;SDS011;51349;52.424;10.840;2023-09-30T04:30:55;12.07;;;3.47;;
64868;SDS011;51349;52.424;10.840;2023-09-30T04:35:56;7.15;;;2.92;;
64868;SDS011;51349;52.424;10.840;2023-09-30T04:40:57;5.95;;;2.63;;
64868;SDS011;51349;52.424;10.840;2023-09-30T04:45:58;7.63;;;2.92;;
64868;SDS011;51349;52.424;10.840;2023-09-30T04:50:58;9.52;;;3.70;;
64868;SDS011;51349;52.424;10.840;2023-09-30T04:56:00;9.50;;;3.22;;
64868;SDS011;51349;52.424;10.840;2023-09-30T05:01:01;8.18;;;3.28;;
64868;SDS011;51349;52.424;10.840;2023-09-30T05:06:02;7.15;;;2.75;;
64868;SDS011;51349;52.424;10.840;2023-09-30T05:11:03;11.10;;;3.38;;
64868;SDS011;51349;52.424;10.840;2023-09-30T05:16:05;11.75;;;3.55;;
64868;SDS011;51349;52.424;10.840;2023-09-30T05:21:07;7.45;;;3.33;;
64868;SDS011;51349;52.424;10.840;2023-09-30T05:26:07;9.00;;;3.17;;
64868;SDS011;51349;52.424;10.840;2023-09-30T05:31:08;11.13;;;2.90;;
64868;SDS011;51349;52.424;10.840;2023-09-30T05:36:09;8.80;;;3.38;;
64868;SDS011;51349;52.424;10.840;2023-09-30T05:41:09;7.97;;;3.10;;
64868;SDS011;51349;52.424;10.840;2023-09-30T05:46:11;5.82;;;2.80;;
64868;SDS011;51349;52.424;10.840;2023-09-30T05:51:13;11.10;;;3.45;;
64868;SDS011;51349;52.424;10.840;2023-09-30T05:56:15;9.70;;;3.65;;
64868;SDS011;51349;52.424;10.840;2023-09-30T06:01:15;9.10;;;2.92;;
64868;SDS011;51349;52.424;10.840;2023-09-30T06:06:18;6.53;;;3.20;;
64868;SDS011;51349;52.424;10.840;2023-09-30T06:11:20;7.13;;;3.22;;
64868;SDS011;51349;52.424;10.840;2023-09-30T06:16:30;9.93;;;3.35;;
64868;SDS011;51349;52.424;10.840;2023-09-30T06:21:31;10.27;;;3.30;;
64868;SDS011;51349;52.424;10.840;2023-09-30T06:26:34;10.80;;;3.90;;
64868;SDS011;51349;52.424;10.840;2023-09-30T06:31:35;10.18;;;3.60;;
64868;SDS011;51349;52.424;10.840;2023-09-30T06:36:36;7.57;;;3.33;;
64868;SDS011;51349;52.424;10.840;2023-09-30T06:41:40;5.75;;;3.20;;
64868;SDS011;51349;52.424;10.840;2023-09-30T06:46:41;6.82;;;3.30;;
64868;SDS011;51349;52.424;10.840;2023-09-30T06:51:42;12.48;;;3.28;;
64868;SDS011;51349;52.424;10.840;2023-09-30T06:56:43;9.63;;;3.30;;
64868;SDS011;51349;52.424;10.840;2023-09-30T07:01:44;5.65;;;3.05;;
64868;SDS011;51349;52.424;10.840;2023-09-30T07:06:44;7.82;;;3.53;;
64868;SDS011;51349;52.424;10.840;2023-09-30T07:11:46;10.93;;;3.65;;
64868;SDS011;51349;52.424;10.840;2023-09-30T07:16:46;12.05;;;3.90;;
64868;SDS011;51349;52.424;10.840;2023-09-30T07:21:47;11.43;;;3.63;;
64868;SDS011;51349;52.424;10.840;2023-09-30T07:26:48;14.35;;;5.57;;
64868;SDS011;51349;52.424;10.840;2023-09-30T07:31:49;5.90;;;3.15;;
64868;SDS011;51349;52.424;10.840;2023-09-30T07:36:50;10.52;;;3.42;;
64868;SDS011;51349;52.424;10.840;2023-09-30T07:41:51;6.20;;;3.22;;
64868;SDS011;51349;52.424;10.840;2023-09-30T07:46:52;7.63;;;2.97;;
64868;SDS011;51349;52.424;10.840;2023-09-30T07:51:53;8.80;;;3.00;;
64868;SDS011;51349;52.424;10.840;2023-09-30T07:56:54;8.18;;;3.22;;
64868;SDS011;51349;52.424;10.840;2023-09-30T08:01:55;9.18;;;3.30;;
64868;SDS011;51349;52.424;10.840;2023-09-30T08:06:57;7.95;;;3.03;;
64868;SDS011;51349;52.424;10.840;2023-09-30T08:11:58;6.90;;;2.90;;
64868;SDS011;51349;52.424;10.840;2023-09-30T08:16:59;8.05;;;2.80;;
64868;SDS011;51349;52.424;10.840;2023-09-30T08:22:00;9.00;;;3.00;;
64868;SDS011;51349;52.424;10.840;2023-09-30T08:27:00;6.47;;;2.83;;
64868;SDS011;51349;52.424;10.840;2023-09-30T08:32:02;7.18;;;2.67;;
64868;SDS011;51349;52.424;10.840;2023-09-30T08:37:03;11.00;;;2.95;;
64868;SDS011;51349;52.424;10.840;2023-09-30T08:42:04;6.68;;;2.60;;
64868;SDS011;51349;52.424;10.840;2023-09-30T08:47:14;7.95;;;3.15;;
64868;SDS011;51349;52.424;10.840;2023-09-30T08:52:15;5.18;;;2.13;;
64868;SDS011;51349;52.424;10.840;2023-09-30T08:57:17;4.88;;;3.00;;
64868;SDS011;51349;52.424;10.840;2023-09-30T09:02:19;8.30;;;2.55;;
64868;SDS011;51349;52.424;10.840;2023-09-30T09:07:20;7.88;;;2.88;;
64868;SDS011;51349;52.424;10.840;2023-09-30T09:12:21;4.28;;;2.25;;
64868;SDS011;51349;52.424;10.840;2023-09-30T09:17:22;3.33;;;2.20;;
64868;SDS011;51349;52.424;10.840;2023-09-30T09:22:23;5.85;;;2.42;;
64868;SDS011;51349;52.424;10.840;2023-09-30T09:27:23;8.02;;;2.50;;
64868;SDS011;51349;52.424;10.840;2023-09-30T09:32:24;8.48;;;2.67;;
64868;SDS011;51349;52.424;10.840;2023-09-30T09:37:25;6.45;;;2.63;;
64868;SDS011;51349;52.424;10.840;2023-09-30T09:42:30;10.63;;;3.45;;
64868;SDS011;51349;52.424;10.840;2023-09-30T09:47:33;6.47;;;2.55;;
64868;SDS011;51349;52.424;10.840;2023-09-30T09:52:35;7.50;;;2.30;;
64868;SDS011;51349;52.424;10.840;2023-09-30T09:57:37;8.52;;;2.95;;
64868;SDS011;51349;52.424;10.840;2023-09-30T10:02:40;5.82;;;2.60;;
64868;SDS011;51349;52.424;10.840;2023-09-30T10:08:03;5.32;;;2.80;;
64868;SDS011;51349;52.424;10.840;2023-09-30T10:13:05;4.65;;;2.05;;
64868;SDS011;51349;52.424;10.840;2023-09-30T10:18:07;5.90;;;2.50;;
64868;SDS011;51349;52.424;10.840;2023-09-30T10:23:25;4.70;;;2.25;;
64868;SDS011;51349;52.424;10.840;2023-09-30T10:34:04;6.65;;;2.10;;
64868;SDS011;51349;52.424;10.840;2023-09-30T10:39:01;6.05;;;2.42;;
64868;SDS011;51349;52.424;10.840;2023-09-30T10:49:31;4.40;;;2.00;;
64868;SDS011;51349;52.424;10.840;2023-09-30T10:54:32;5.45;;;2.20;;
64868;SDS011;51349;52.424;10.840;2023-09-30T10:59:33;3.90;;;1.90;;
64868;SDS011;51349;52.424;10.840;2023-09-30T11:04:47;3.80;;;2.63;;
64868;SDS011;51349;52.424;10.840;2023-09-30T11:09:48;4.00;;;2.10;;
64868;SDS011;51349;52.424;10.840;2023-09-30T11:14:58;4.32;;;1.92;;
64868;SDS011;51349;52.424;10.840;2023-09-30T11:20:00;6.15;;;2.17;;
64868;SDS011;51349;52.424;10.840;2023-09-30T11:25:04;4.88;;;2.00;;
64868;SDS011;51349;52.424;10.840;2023-09-30T11:30:05;7.28;;;2.25;;
64868;SDS011;51349;52.424;10.840;2023-09-30T11:35:23;4.55;;;1.88;;
64868;SDS011;51349;52.424;10.840;2023-09-30T11:40:24;5.68;;;2.03;;
64868;SDS011;51349;52.424;10.840;2023-09-30T11:45:25;4.03;;;2.08;;
64868;SDS011;51349;52.424;10.840;2023-09-30T11:50:26;3.60;;;1.70;;
64868;SDS011;51349;52.424;10.840;2023-09-30T11:55:27;4.60;;;1.83;;
64868;SDS011;51349;52.424;10.840;2023-09-30T12:00:27;2.45;;;1.48;;
64868;SDS011;51349;52.424;10.840;2023-09-30T12:05:29;2.90;;;1.80;;
64868;SDS011;51349;52.424;10.840;2023-09-30T12:10:32;4.07;;;2.10;;
64868;SDS011;51349;52.424;10.840;2023-09-30T12:15:33;3.55;;;1.92;;
64868;SDS011;51349;52.424;10.840;2023-09-30T12:20:34;5.65;;;1.85;;
64868;SDS011;51349;52.424;10.840;2023-09-30T12:25:34;3.80;;;1.85;;
64868;SDS011;51349;52.424;10.840;2023-09-30T12:30:37;4.35;;;1.75;;
64868;SDS011;51349;52.424;10.840;2023-09-30T12:35:40;3.00;;;1.85;;
64868;SDS011;51349;52.424;10.840;2023-09-30T12:40:40;3.97;;;1.80;;
64868;SDS011;51349;52.424;10.840;2023-09-30T12:45:41;2.88;;;1.60;;
64868;SDS011;51349;52.424;10.840;2023-09-30T12:50:42;5.50;;;1.73;;
64868;SDS011;51349;52.424;10.840;2023-09-30T12:55:43;4.18;;;1.50;;
64868;SDS011;51349;52.424;10.840;2023-09-30T13:00:44;4.10;;;2.10;;
64868;SDS011;51349;52.424;10.840;2023-09-30T13:05:45;4.07;;;2.08;;
64868;SDS011;51349;52.424;10.840;2023-09-30T13:10:45;3.70;;;1.77;;
64868;SDS011;51349;52.424;10.840;2023-09-30T13:15:50;4.43;;;1.80;;
64868;SDS011;51349;52.424;10.840;2023-09-30T13:20:51;3.35;;;1.88;;
64868;SDS011;51349;52.424;10.840;2023-09-30T13:25:54;2.83;;;1.88;;
64868;SDS011;51349;52.424;10.840;2023-09-30T13:30:55;5.03;;;1.70;;
64868;SDS011;51349;52.424;10.840;2023-09-30T13:35:56;4.00;;;1.70;;
64868;SDS011;51349;52.424;10.840;2023-09-30T13:40:58;2.15;;;1.50;;
64868;SDS011;51349;52.424;10.840;2023-09-30T13:46:02;4.13;;;2.00;;
64868;SDS011;51349;52.424;10.840;2023-09-30T13:51:07;2.28;;;1.65;;
64868;SDS011;51349;52.424;10.840;2023-09-30T13:56:09;3.55;;;1.98;;
64868;SDS011;51349;52.424;10.840;2023-09-30T14:01:12;5.07;;;2.00;;
64868;SDS011;51349;52.424;10.840;2023-09-30T14:06:14;4.40;;;1.80;;
64868;SDS011;51349;52.424;10.840;2023-09-30T14:11:15;3.50;;;1.58;;
64868;SDS011;51349;52.424;10.840;2023-09-30T14:16:16;3.63;;;1.60;;
64868;SDS011;51349;52.424;10.840;2023-09-30T14:21:16;2.55;;;1.58;;
64868;SDS011;51349;52.424;10.840;2023-09-30T14:26:18;2.20;;;1.65;;
64868;SDS011;51349;52.424;10.840;2023-09-30T14:31:19;2.58;;;1.70;;
64868;SDS011;51349;52.424;10.840;2023-09-30T14:36:19;2.38;;;1.80;;
64868;SDS011;51349;52.424;10.840;2023-09-30T14:41:20;2.25;;;1.50;;
64868;SDS011;51349;52.424;10.840;2023-09-30T14:46:21;3.25;;;1.70;;
64868;SDS011;51349;52.424;10.840;2023-09-30T14:51:22;1.98;;;1.35;;
64868;SDS011;51349;52.424;10.840;2023-09-30T14:56:24;2.53;;;1.50;;
64868;SDS011;51349;52.424;10.840;2023-09-30T15:01:24;1.85;;;1.60;;
64868;SDS011;51349;52.424;10.840;2023-09-30T15:06:26;4.65;;;1.60;;
64868;SDS011;51349;52.424;10.840;2023-09-30T15:11:31;3.55;;;1.63;;
64868;SDS011;51349;52.424;10.840;2023-09-30T15:16:35;3.13;;;1.67;;
64868;SDS011;51349;52.424;10.840;2023-09-30T15:21:40;3.33;;;1.70;;
64868;SDS011;51349;52.424;10.840;2023-09-30T15:26:41;3.97;;;1.70;;
64868;SDS011;51349;52.424;10.840;2023-09-30T15:31:41;4.03;;;2.20;;
64868;SDS011;51349;52.424;10.840;2023-09-30T15:36:42;2.95;;;1.73;;
64868;SDS011;51349;52.424;10.840;2023-09-30T15:41:44;2.40;;;1.80;;
64868;SDS011;51349;52.424;10.840;2023-09-30T15:46:44;2.45;;;1.50;;
64868;SDS011;51349;52.424;10.840;2023-09-30T15:51:45;3.15;;;2.10;;
64868;SDS011;51349;52.424;10.840;2023-09-30T15:56:47;4.10;;;2.85;;
64868;SDS011;51349;52.424;10.840;2023-09-30T16:01:47;4.80;;;3.20;;
64868;SDS011;51349;52.424;10.840;2023-09-30T16:06:49;2.05;;;1.60;;
64868;SDS011;51349;52.424;10.840;2023-09-30T16:11:49;3.53;;;1.80;;
64868;SDS011;51349;52.424;10.840;2023-09-30T16:16:50;3.08;;;1.77;;
64868;SDS011;51349;52.424;10.840;2023-09-30T16:21:51;2.72;;;1.65;;
64868;SDS011;51349;52.424;10.840;2023-09-30T16:26:51;2.65;;;1.85;;
64868;SDS011;51349;52.424;10.840;2023-09-30T16:31:52;2.83;;;1.80;;
64868;SDS011;51349;52.424;10.840;2023-09-30T16:36:53;2.20;;;1.77;;
64868;SDS011;51349;52.424;10.840;2023-09-30T16:41:53;4.50;;;2.08;;
64868;SDS011;51349;52.424;10.840;2023-09-30T16:46:54;2.15;;;1.90;;
64868;SDS011;51349;52.424;10.840;2023-09-30T16:51:55;4.28;;;1.90;;
64868;SDS011;51349;52.424;10.840;2023-09-30T16:56:55;4.03;;;1.92;;
64868;SDS011;51349;52.424;10.840;2023-09-30T17:01:58;2.47;;;1.77;;
64868;SDS011;51349;52.424;10.840;2023-09-30T17:06:59;3.42;;;1.95;;
64868;SDS011;51349;52.424;10.840;2023-09-30T17:12:00;3.05;;;2.00;;
64868;SDS011;51349;52.424;10.840;2023-09-30T17:17:01;2.58;;;1.85;;
64868;SDS011;51349;52.424;10.840;2023-09-30T17:22:02;3.00;;;1.80;;
64868;SDS011;51349;52.424;10.840;2023-09-30T17:27:05;5.53;;;2.05;;
64868;SDS011;51349;52.424;10.840;2023-09-30T17:32:06;4.50;;;1.90;;
64868;SDS011;51349;52.424;10.840;2023-09-30T17:37:07;2.65;;;2.00;;
64868;SDS011;51349;52.424;10.840;2023-09-30T17:42:07;5.82;;;1.88;;
64868;SDS011;51349;52.424;10.840;2023-09-30T17:47:09;2.78;;;1.75;;
64868;SDS011;51349;52.424;10.840;2023-09-30T17:52:10;4.15;;;2.05;;
64868;SDS011;51349;52.424;10.840;2023-09-30T17:57:11;2.53;;;2.05;;
64868;SDS011;51349;52.424;10.840;2023-09-30T18:02:11;2.15;;;1.80;;
64868;SDS011;51349;52.424;10.840;2023-09-30T18:07:12;4.70;;;2.03;;
64868;SDS011;51349;52.424;10.840;2023-09-30T18:12:13;2.67;;;1.63;;
64868;SDS011;51349;52.424;10.840;2023-09-30T18:17:14;2.83;;;2.00;;
64868;SDS011;51349;52.424;10.840;2023-09-30T18:22:14;2.55;;;1.70;;
64868;SDS011;51349;52.424;10.840;2023-09-30T18:27:15;4.28;;;2.03;;
64868;SDS011;51349;52.424;10.840;2023-09-30T18:32:16;3.17;;;2.30;;
64868;SDS011;51349;52.424;10.840;2023-09-30T18:37:16;2.42;;;1.80;;
64868;SDS011;51349;52.424;10.840;2023-09-30T18:42:17;3.78;;;2.45;;
64868;SDS011;51349;52.424;10.840;2023-09-30T18:47:18;2.90;;;2.15;;
64868;SDS011;51349;52.424;10.840;2023-09-30T18:52:19;3.53;;;2.30;;
64868;SDS011;51349;52.424;10.840;2023-09-30T18:57:20;3.28;;;2.35;;
64868;SDS011;51349;52.424;10.840;2023-09-30T19:02:21;4.18;;;2.33;;
64868;SDS011;51349;52.424;10.840;2023-09-30T19:07:21;3.17;;;2.60;;
64868;SDS011;51349;52.424;10.840;2023-09-30T19:12:22;3.05;;;2.10;;
64868;SDS011;51349;52.424;10.840;2023-09-30T19:17:23;4.30;;;2.55;;
64868;SDS011;51349;52.424;10.840;2023-09-30T19:22:23;4.78;;;2.58;;
64868;SDS011;51349;52.424;10.840;2023-09-30T19:27:25;3.05;;;2.22;;
64868;SDS011;51349;52.424;10.840;2023-09-30T19:32:26;2.70;;;2.17;;
64868;SDS011;51349;52.424;10.840;2023-09-30T19:37:27;3.70;;;2.50;;
64868;SDS011;51349;52.424;10.840;2023-09-30T19:42:28;4.30;;;2.60;;
64868;SDS011;51349;52.424;10.840;2023-09-30T19:47:30;4.10;;;2.60;;
64868;SDS011;51349;52.424;10.840;2023-09-30T19:52:31;3.85;;;2.38;;
64868;SDS011;51349;52.424;10.840;2023-09-30T19:57:31;5.85;;;2.58;;
64868;SDS011;51349;52.424;10.840;2023-09-30T20:02:32;3.42;;;2.50;;
64868;SDS011;51349;52.424;10.840;2023-09-30T20:07:33;3.72;;;2.45;;
64868;SDS011;51349;52.424;10.840;2023-09-30T20:12:34;2.90;;;2.28;;
64868;SDS011;51349;52.424;10.840;2023-09-30T20:17:36;3.58;;;2.50;;
64868;SDS011;51349;52.424;10.840;2023-09-30T20:22:37;3.38;;;2.45;;
64868;SDS011;51349;52.424;10.840;2023-09-30T20:27:38;3.80;;;2.60;;
64868;SDS011;51349;52.424;10.840;2023-09-30T20:32:41;4.32;;;2.85;;
64868;SDS011;51349;52.424;10.840;2023-09-30T20:37:42;4.18;;;2.80;;
64868;SDS011;51349;52.424;10.840;2023-09-30T20:42:43;3.35;;;2.78;;
64868;SDS011;51349;52.424;10.840;2023-09-30T20:47:44;4.75;;;2.90;;
64868;SDS011;51349;52.424;10.840;2023-09-30T20:52:44;3.78;;;2.78;;
64868;SDS011;51349;52.424;10.840;2023-09-30T20:57:50;4.68;;;2.70;;
64868;SDS011;51349;52.424;10.840;2023-09-30T21:02:52;3.15;;;2.75;;
64868;SDS011;51349;52.424;10.840;2023-09-30T21:07:54;5.07;;;3.08;;
64868;SDS011;51349;52.424;10.840;2023-09-30T21:12:55;5.80;;;3.55;;
64868;SDS011;51349;52.424;10.840;2023-09-30T21:17:55;4.03;;;3.10;;
64868;SDS011;51349;52.424;10.840;2023-09-30T21:22:56;5.03;;;3.30;;
64868;SDS011;51349;52.424;10.840;2023-09-30T21:27:59;6.78;;;3.50;;
64868;SDS011;51349;52.424;10.840;2023-09-30T21:33:00;4.03;;;3.40;;
64868;SDS011;51349;52.424;10.840;2023-09-30T21:38:00;4.88;;;3.60;;
64868;SDS011;51349;52.424;10.840;2023-09-30T21:43:01;7.43;;;3.53;;
64868;SDS011;51349;52.424;10.840;2023-09-30T21:48:03;5.00;;;3.42;;
64868;SDS011;51349;52.424;10.840;2023-09-30T21:53:04;7.88;;;3.75;;
64868;SDS011;51349;52.424;10.840;2023-09-30T21:58:05;4.47;;;3.60;;
64868;SDS011;51349;52.424;10.840;2023-09-30T22:03:06;4.20;;;3.42;;
64868;SDS011;51349;52.424;10.840;2023-09-30T22:08:08;6.10;;;3.63;;
64868;SDS011;51349;52.424;10.840;2023-09-30T22:13:09;4.78;;;3.70;;
64868;SDS011;51349;52.424;10.840;2023-09-30T22:18:10;4.13;;;3.45;;
64868;SDS011;51349;52.424;10.840;2023-09-30T22:23:11;5.25;;;3.67;;
64868;SDS011;51349;52.424;10.840;2023-09-30T22:28:12;4.70;;;3.88;;
64868;SDS011;51349;52.424;10.840;2023-09-30T22:33:13;7.28;;;4.20;;
64868;SDS011;51349;52.424;10.840;2023-09-30T22:38:13;5.22;;;4.03;;
64868;SDS011;51349;52.424;10.840;2023-09-30T22:43:14;5.00;;;3.67;;
64868;SDS011;51349;52.424;10.840;2023-09-30T22:48:15;5.05;;;4.07;;
64868;SDS011;51349;52.424;10.840;2023-09-30T22:53:15;4.63;;;3.70;;
64868;SDS011;51349;52.424;10.840;2023-09-30T22:58:16;6.75;;;3.75;;
64868;SDS011;51349;52.424;10.840;2023-09-30T23:03:17;6.10;;;3.72;;
64868;SDS011;51349;52.424;10.840;2023-09-30T23:08:17;3.88;;;3.47;;
64868;SDS011;51349;52.424;10.840;2023-09-30T23:13:18;5.10;;;3.83;;
64868;SDS011;51349;52.424;10.840;2023-09-30T23:18:19;6.38;;;4.20;;
64868;SDS011;51349;52.424;10.840;2023-09-30T23:23:19;4.70;;;3.67;;
64868;SDS011;51349;52.424;10.840;2023-09-30T23:28:20;6.53;;;3.63;;
64868;SDS011;51349;52.424;10.840;2023-09-30T23:33:23;5.93;;;3.63;;
64868;SDS011;51349;52.424;10.840;2023-09-30T23:38:24;4.35;;;3.63;;
64868;SDS011;51349;52.424;10.840;2023-09-30T23:43:25;4.93;;;3.70;;
64868;SDS011;51349;52.424;10.840;2023-09-30T23:48:26;7.47;;;4.35;;
64868;SDS011;51349;52.424;10.840;2023-09-30T23:53:27;3.58;;;3.28;;
64868;SDS011;51349;52.424;10.840;2023-09-30T23:58:28;7.35;;;4.00;;
